createdAt,value
2023-04-05T00:01:35.742Z,12.48
2023-04-05T00:04:06.031Z,11.05
2023-04-05T00:06:37.950Z,13.88
2023-04-05T00:09:06.903Z,9.50
2023-04-05T00:11:35.578Z,11.23
2023-04-05T00:14:04.767Z,9.32
2023-04-05T00:16:33.123Z,9.82
2023-04-05T00:19:02.212Z,9.52
2023-04-05T00:21:30.438Z,9.75
2023-04-05T00:24:00.988Z,11.77
2023-04-05T00:26:29.235Z,9.82
2023-04-05T00:28:58.974Z,14.23
2023-04-05T00:31:27.289Z,10.00
2023-04-05T00:33:55.733Z,11.27
2023-04-05T00:36:24.885Z,9.30
2023-04-05T00:38:53.321Z,9.88
2023-04-05T00:41:22.870Z,9.27
2023-04-05T00:43:52.138Z,10.70
2023-04-05T00:46:20.455Z,10.43
2023-04-05T00:48:49.080Z,13.90
2023-04-05T00:51:17.437Z,14.77
2023-04-05T00:53:46.155Z,12.68
2023-04-05T00:56:16.992Z,10.30
2023-04-05T00:58:48.703Z,9.18
2023-04-05T01:01:20.394Z,9.20
2023-04-05T01:03:53.896Z,10.65
2023-04-05T01:06:44.298Z,9.48
2023-04-05T01:09:19.374Z,12.95
2023-04-05T01:11:49.867Z,9.30
2023-04-05T01:14:19.633Z,10.45
2023-04-05T01:16:49.965Z,11.48
2023-04-05T01:19:19.113Z,8.70
2023-04-05T01:22:18.225Z,10.00
2023-04-05T01:25:02.889Z,12.20
2023-04-05T01:27:51.738Z,14.38
2023-04-05T01:30:25.718Z,9.30
2023-04-05T01:33:05.691Z,10.10
2023-04-05T01:35:41.387Z,10.27
2023-04-05T01:38:13.094Z,13.40
2023-04-05T01:40:43.968Z,9.88
2023-04-05T01:43:15.989Z,10.45
2023-04-05T01:45:46.633Z,11.23
2023-04-05T01:48:15.905Z,11.95
2023-04-05T01:50:44.609Z,10.98
2023-04-05T01:53:12.730Z,9.77
2023-04-05T01:55:40.907Z,9.50
2023-04-05T01:58:10.160Z,13.68
2023-04-05T02:00:39.405Z,9.05
2023-04-05T02:03:09.215Z,10.13
2023-04-05T02:05:37.462Z,11.65
2023-04-05T02:08:05.588Z,10.52
2023-04-05T02:10:33.697Z,8.63
2023-04-05T02:13:02.237Z,11.32
2023-04-05T02:15:31.634Z,9.70
2023-04-05T02:18:02.438Z,14.90
2023-04-05T02:20:33.001Z,12.20
2023-04-05T02:23:04.523Z,11.10
2023-04-05T02:25:32.804Z,9.60
2023-04-05T02:28:06.230Z,8.85
2023-04-05T02:30:34.650Z,9.38
2023-04-05T02:33:03.629Z,13.65
2023-04-05T02:35:33.508Z,10.93
2023-04-05T02:38:02.113Z,9.43
2023-04-05T02:40:30.153Z,8.70
2023-04-05T02:42:58.724Z,10.98
2023-04-05T02:45:28.016Z,11.13
2023-04-05T02:47:58.809Z,10.30
2023-04-05T02:50:30.439Z,10.55
2023-04-05T02:52:59.936Z,9.88
2023-04-05T02:55:31.033Z,12.57
2023-04-05T02:58:01.935Z,11.93
2023-04-05T03:00:39.015Z,11.82
2023-04-05T03:03:07.560Z,9.93
2023-04-05T03:05:42.247Z,11.05
2023-04-05T03:08:18.625Z,11.68
2023-04-05T03:10:53.854Z,9.30
2023-04-05T03:13:22.515Z,12.10
2023-04-05T03:15:55.345Z,10.85
2023-04-05T03:18:27.669Z,10.20
2023-04-05T03:20:59.371Z,12.77
2023-04-05T03:23:31.168Z,9.40
2023-04-05T03:26:00.683Z,12.60
2023-04-05T03:28:33.318Z,10.60
2023-04-05T03:31:05.035Z,11.23
2023-04-05T03:33:33.944Z,12.90
2023-04-05T03:36:02.453Z,11.48
2023-04-05T03:38:36.336Z,12.05
2023-04-05T03:41:16.353Z,10.98
2023-04-05T03:43:44.556Z,12.05
2023-04-05T03:46:12.895Z,10.18
2023-04-05T03:48:41.264Z,9.57
2023-04-05T03:51:11.012Z,9.88
2023-04-05T03:53:40.963Z,11.43
2023-04-05T03:56:09.425Z,11.70
2023-04-05T03:58:46.710Z,10.43
2023-04-05T04:01:16.782Z,11.88
2023-04-05T04:03:45.150Z,8.25
2023-04-05T04:06:13.400Z,9.18
2023-04-05T04:08:44.035Z,10.80
2023-04-05T04:11:12.253Z,12.85
2023-04-05T04:13:41.978Z,9.55
2023-04-05T04:16:19.490Z,11.02
2023-04-05T04:19:03.142Z,9.27
2023-04-05T04:21:32.643Z,11.07
2023-04-05T04:24:28.446Z,10.18
2023-04-05T04:27:17.104Z,10.25
2023-04-05T04:30:12.266Z,9.13
2023-04-05T04:33:04.585Z,12.63
2023-04-05T04:36:09.460Z,9.45
2023-04-05T04:39:14.033Z,10.13
2023-04-05T04:42:12.200Z,10.15
2023-04-05T04:45:02.746Z,12.68
2023-04-05T04:47:53.654Z,11.35
2023-04-05T04:50:46.994Z,11.73
2023-04-05T04:53:17.476Z,11.57
2023-04-05T04:55:46.168Z,14.85
2023-04-05T04:58:15.991Z,12.48
2023-04-05T05:00:48.424Z,12.88
2023-04-05T05:03:16.618Z,12.40
2023-04-05T05:05:45.315Z,11.27
2023-04-05T05:08:14.036Z,12.95
2023-04-05T05:10:43.471Z,15.70
2023-04-05T05:13:12.281Z,14.32
2023-04-05T05:15:42.776Z,13.48
2023-04-05T05:18:12.403Z,12.05
2023-04-05T05:20:41.464Z,12.82
2023-04-05T05:23:09.917Z,14.45
2023-04-05T05:25:38.729Z,15.18
2023-04-05T05:28:07.184Z,12.48
2023-04-05T05:30:35.349Z,17.48
2023-04-05T05:33:05.394Z,11.77
2023-04-05T05:35:33.765Z,11.52
2023-04-05T05:38:02.802Z,11.00
2023-04-05T05:40:30.904Z,10.85
2023-04-05T05:42:59.018Z,13.23
2023-04-05T05:45:27.320Z,11.93
2023-04-05T05:47:57.356Z,9.32
2023-04-05T05:50:26.927Z,10.10
2023-04-05T05:52:55.576Z,13.88
2023-04-05T05:55:23.730Z,12.75
2023-04-05T05:57:53.010Z,14.13
2023-04-05T06:00:21.823Z,11.77
2023-04-05T06:02:50.754Z,12.88
2023-04-05T06:05:18.996Z,10.68
2023-04-05T06:07:51.230Z,11.88
2023-04-05T06:10:19.806Z,9.18
2023-04-05T06:12:48.073Z,12.40
2023-04-05T06:15:16.381Z,13.80
2023-04-05T06:17:45.028Z,13.00
2023-04-05T06:20:13.719Z,13.13
2023-04-05T06:22:41.976Z,13.05
2023-04-05T06:25:13.168Z,12.63
2023-04-05T06:27:41.523Z,14.85
2023-04-05T06:30:10.553Z,14.20
2023-04-05T06:32:38.966Z,11.35
2023-04-05T06:35:08.727Z,14.27
2023-04-05T06:37:36.810Z,12.73
2023-04-05T06:40:06.180Z,12.50
2023-04-05T06:42:36.091Z,10.10
2023-04-05T06:45:07.738Z,11.18
2023-04-05T06:51:42.973Z,13.57
2023-04-05T06:54:12.120Z,11.57
2023-04-05T06:56:40.287Z,11.27
2023-04-05T06:59:10.034Z,11.90
2023-04-05T07:01:38.257Z,16.75
2023-04-05T07:04:06.575Z,17.58
2023-04-05T07:06:39.100Z,11.43
2023-04-05T07:09:07.282Z,9.98
2023-04-05T07:11:35.453Z,14.25
2023-04-05T07:14:03.701Z,9.50
2023-04-05T07:16:33.450Z,11.90
2023-04-05T07:19:01.741Z,9.80
2023-04-05T07:21:30.835Z,9.77
2023-04-05T07:24:00.853Z,10.20
2023-04-05T07:26:29.246Z,11.35
2023-04-05T07:28:57.345Z,9.20
2023-04-05T07:31:25.511Z,12.07
2023-04-05T07:33:55.187Z,11.70
2023-04-05T07:36:23.306Z,9.57
2023-04-05T07:38:51.882Z,15.13
2023-04-05T07:41:20.472Z,8.20
2023-04-05T07:43:48.708Z,12.50
2023-04-05T07:46:17.338Z,9.48
2023-04-05T07:48:48.146Z,11.30
2023-04-05T07:51:17.762Z,14.18
2023-04-05T07:53:46.067Z,10.68
2023-04-05T07:56:14.685Z,9.23
2023-04-05T07:58:43.208Z,10.57
2023-04-05T08:01:12.153Z,9.80
2023-04-05T08:03:40.793Z,9.50
2023-04-05T08:06:12.936Z,8.70
2023-04-05T08:08:42.820Z,9.70
2023-04-05T08:11:11.399Z,9.18
2023-04-05T08:13:41.658Z,12.63
2023-04-05T08:16:10.251Z,8.57
2023-04-05T08:18:38.568Z,10.93
2023-04-05T08:21:07.180Z,12.50
2023-04-05T08:23:35.422Z,8.93
2023-04-05T08:26:05.333Z,10.07
2023-04-05T08:28:33.623Z,7.28
2023-04-05T08:31:01.839Z,9.68
2023-04-05T08:33:31.314Z,12.20
2023-04-05T08:36:04.599Z,8.30
2023-04-05T08:38:33.059Z,6.75
2023-04-05T08:41:09.544Z,13.85
2023-04-05T08:43:48.786Z,9.10
2023-04-05T08:46:19.074Z,9.48
2023-04-05T08:48:47.561Z,8.57
2023-04-05T08:51:20.455Z,8.35
2023-04-05T08:53:49.002Z,7.85
2023-04-05T08:56:22.609Z,8.30
2023-04-05T08:58:58.304Z,8.05
2023-04-05T09:01:29.381Z,13.20
2023-04-05T09:03:59.078Z,14.13
2023-04-05T09:06:28.992Z,6.78
2023-04-05T09:08:58.727Z,7.82
2023-04-05T09:11:28.966Z,8.73
2023-04-05T09:13:57.484Z,7.13
2023-04-05T09:16:28.582Z,12.45
2023-04-05T09:18:56.914Z,9.55
2023-04-05T09:21:25.426Z,8.07
2023-04-05T09:23:55.955Z,8.48
2023-04-05T09:26:26.457Z,7.88
2023-04-05T09:29:02.268Z,7.82
2023-04-05T09:31:35.556Z,8.63
2023-04-05T09:34:09.946Z,7.35
2023-04-05T09:36:45.444Z,7.07
2023-04-05T09:39:13.993Z,6.72
2023-04-05T09:41:42.378Z,6.72
2023-04-05T09:44:12.382Z,7.22
2023-04-05T09:46:41.848Z,7.38
2023-04-05T09:49:10.492Z,7.93
2023-04-05T09:51:40.092Z,7.40
2023-04-05T09:54:12.751Z,8.80
2023-04-05T09:56:54.698Z,7.80
2023-04-05T09:59:24.839Z,7.78
2023-04-05T10:01:53.771Z,8.68
2023-04-05T10:04:23.195Z,8.48
2023-04-05T10:06:51.844Z,9.80
2023-04-05T10:09:20.348Z,8.40
2023-04-05T10:11:49.019Z,8.45
2023-04-05T10:14:17.406Z,8.07
2023-04-05T10:16:55.035Z,7.50
2023-04-05T10:19:42.318Z,7.70
2023-04-05T10:22:18.875Z,11.35
2023-04-05T10:24:53.030Z,8.13
2023-04-05T10:27:28.965Z,8.85
2023-04-05T10:30:06.093Z,7.15
2023-04-05T10:32:45.622Z,8.20
2023-04-05T10:35:18.767Z,8.68
2023-04-05T10:38:00.510Z,10.20
2023-04-05T10:40:34.258Z,6.72
2023-04-05T10:43:04.310Z,8.68
2023-04-05T10:45:35.730Z,7.78
2023-04-05T10:48:17.239Z,10.02
2023-04-05T10:50:48.512Z,10.23
2023-04-05T10:53:18.326Z,9.10
2023-04-05T10:55:47.019Z,7.60
2023-04-05T10:58:17.597Z,8.60
2023-04-05T11:00:47.466Z,10.15
2023-04-05T11:06:25.418Z,8.93
2023-04-05T11:08:58.843Z,9.15
2023-04-05T11:11:27.770Z,8.85
2023-04-05T11:13:57.225Z,8.70
2023-04-05T11:16:39.948Z,9.95
2023-04-05T11:19:08.652Z,9.85
2023-04-05T11:21:38.470Z,9.02
2023-04-05T11:24:08.512Z,9.00
2023-04-05T11:26:57.765Z,9.10
2023-04-05T11:29:48.514Z,9.43
2023-04-05T11:32:17.100Z,8.88
2023-04-05T11:34:46.523Z,10.38
2023-04-05T11:37:18.484Z,9.90
2023-04-05T11:39:46.797Z,9.40
2023-04-05T11:42:18.580Z,8.40
2023-04-05T11:44:49.337Z,9.23
2023-04-05T11:47:21.659Z,9.15
2023-04-05T11:49:52.215Z,10.43
2023-04-05T11:52:23.109Z,8.85
2023-04-05T11:54:51.785Z,9.18
2023-04-05T11:57:21.700Z,9.05
2023-04-05T11:59:52.081Z,9.15
2023-04-05T12:02:21.059Z,9.82
2023-04-05T12:04:56.459Z,15.13
2023-04-05T12:07:28.015Z,8.48
2023-04-05T12:10:09.549Z,8.25
2023-04-05T12:12:39.245Z,9.10
2023-04-05T12:15:11.037Z,8.20
2023-04-05T12:17:50.743Z,8.85
2023-04-05T12:20:22.082Z,8.95
2023-04-05T12:22:53.799Z,10.82
2023-04-05T12:25:22.939Z,9.50
2023-04-05T12:27:51.259Z,8.98
2023-04-05T12:30:21.268Z,10.10
2023-04-05T12:32:53.039Z,9.52
2023-04-05T12:35:24.704Z,8.63
2023-04-05T12:37:54.737Z,9.63
2023-04-05T12:40:25.098Z,7.93
2023-04-05T12:42:53.518Z,8.98
2023-04-05T12:45:24.859Z,8.48
2023-04-05T12:47:54.423Z,9.38
2023-04-05T12:50:29.265Z,11.95
2023-04-05T12:53:06.290Z,9.57
2023-04-05T12:55:43.935Z,8.57
2023-04-05T12:58:13.455Z,11.10
2023-04-05T13:00:41.897Z,9.32
2023-04-05T13:03:17.533Z,9.93
2023-04-05T13:05:46.251Z,8.30
2023-04-05T13:08:18.556Z,7.93
2023-04-05T13:10:47.250Z,10.25
2023-04-05T13:13:15.702Z,9.50
2023-04-05T13:15:44.212Z,9.52
2023-04-05T13:18:14.842Z,10.20
2023-04-05T13:20:43.262Z,9.68
2023-04-05T13:23:12.968Z,8.30
2023-04-05T13:25:45.508Z,7.85
2023-04-05T13:28:14.024Z,10.48
2023-04-05T13:30:42.188Z,9.32
2023-04-05T13:33:10.528Z,8.23
2023-04-05T13:35:38.743Z,10.85
2023-04-05T13:38:07.200Z,9.20
2023-04-05T13:40:35.369Z,8.75
2023-04-05T13:43:05.189Z,8.30
2023-04-05T13:45:33.542Z,8.57
2023-04-05T13:48:02.801Z,10.35
2023-04-05T13:50:31.099Z,9.68
2023-04-05T13:52:59.191Z,9.43
2023-04-05T13:55:27.398Z,9.10
2023-04-05T13:57:55.470Z,10.68
2023-04-05T14:00:25.535Z,9.38
2023-04-05T14:02:53.890Z,9.35
2023-04-05T14:05:22.456Z,10.27
2023-04-05T14:07:51.130Z,9.40
2023-04-05T14:10:21.737Z,9.55
2023-04-05T14:12:49.955Z,11.50
2023-04-05T14:15:18.148Z,9.45
2023-04-05T14:17:47.793Z,8.93
2023-04-05T14:20:16.181Z,9.85
2023-04-05T14:22:44.451Z,9.45
2023-04-05T14:25:12.669Z,8.27
2023-04-05T14:27:42.500Z,8.45
2023-04-05T14:30:12.471Z,9.50
2023-04-05T14:32:40.990Z,8.90
2023-04-05T14:35:11.470Z,7.70
2023-04-05T14:37:39.894Z,8.15
2023-04-05T14:40:09.281Z,9.68
2023-04-05T14:42:48.438Z,9.82
2023-04-05T14:45:17.569Z,8.38
2023-04-05T14:47:46.114Z,8.20
2023-04-05T14:50:15.861Z,8.57
2023-04-05T14:52:45.459Z,8.73
2023-04-05T14:55:14.246Z,9.57
2023-04-05T14:57:43.012Z,8.95
2023-04-05T15:00:12.683Z,10.13
2023-04-05T15:02:41.224Z,7.70
2023-04-05T15:05:10.399Z,10.07
2023-04-05T15:07:40.085Z,9.95
2023-04-05T15:10:09.314Z,10.23
2023-04-05T15:12:37.788Z,10.18
2023-04-05T15:15:07.290Z,10.70
2023-04-05T15:17:35.747Z,11.23
2023-04-05T15:20:04.290Z,8.80
2023-04-05T15:22:32.927Z,9.68
2023-04-05T15:25:02.818Z,11.73
2023-04-05T15:27:31.317Z,10.70
2023-04-05T15:29:59.782Z,12.77
2023-04-05T15:32:28.242Z,8.85
2023-04-05T15:34:58.054Z,8.00
2023-04-05T15:37:26.557Z,8.77
2023-04-05T15:39:55.809Z,8.88
2023-04-05T15:42:25.799Z,7.68
2023-04-05T15:44:54.631Z,8.95
2023-04-05T15:47:26.031Z,9.93
2023-04-05T15:49:57.432Z,9.05
2023-04-05T15:52:26.035Z,8.27
2023-04-05T15:54:54.427Z,7.25
2023-04-05T15:57:24.881Z,7.63
2023-04-05T15:59:55.013Z,7.80
2023-04-05T16:02:23.474Z,7.95
2023-04-05T16:04:52.301Z,11.02
2023-04-05T16:07:21.143Z,8.18
2023-04-05T16:09:49.543Z,11.10
2023-04-05T16:12:18.013Z,9.25
2023-04-05T16:14:46.455Z,8.98
2023-04-05T16:17:16.204Z,11.98
2023-04-05T16:19:44.626Z,9.13
2023-04-05T16:22:12.895Z,9.73
2023-04-05T16:24:41.490Z,7.93
2023-04-05T16:27:09.930Z,8.27
2023-04-05T16:29:38.144Z,6.70
2023-04-05T16:32:07.031Z,7.65
2023-04-05T16:34:36.706Z,8.07
2023-04-05T16:37:04.959Z,7.60
2023-04-05T16:39:33.268Z,7.80
2023-04-05T16:42:01.484Z,9.05
2023-04-05T16:44:32.106Z,8.65
2023-04-05T16:47:00.791Z,7.60
2023-04-05T16:49:29.220Z,8.88
2023-04-05T16:51:58.843Z,8.52
2023-04-05T16:54:27.308Z,8.25
2023-04-05T16:56:56.347Z,7.85
2023-04-05T16:59:24.666Z,9.00
2023-04-05T17:01:53.532Z,13.00
2023-04-05T17:04:22.545Z,9.10
2023-04-05T17:06:51.771Z,7.50
2023-04-05T17:09:21.707Z,8.05
2023-04-05T17:11:50.379Z,7.60
2023-04-05T17:14:18.785Z,8.70
2023-04-05T17:17:03.316Z,8.45
2023-04-05T17:19:31.764Z,9.60
2023-04-05T17:22:03.443Z,11.32
2023-04-05T17:24:36.966Z,7.50
2023-04-05T17:27:05.987Z,8.75
2023-04-05T17:29:52.120Z,8.48
2023-04-05T17:32:23.601Z,8.25
2023-04-05T17:34:54.848Z,9.75
2023-04-05T17:37:24.496Z,12.45
2023-04-05T17:39:55.085Z,10.48
2023-04-05T17:42:26.671Z,10.05
2023-04-05T17:44:56.707Z,8.90
2023-04-05T17:47:25.693Z,9.27
2023-04-05T17:49:54.690Z,9.18
2023-04-05T17:52:23.592Z,8.45
2023-04-05T17:54:54.842Z,9.32
2023-04-05T17:57:24.855Z,11.15
2023-04-05T17:59:53.340Z,10.98
2023-04-05T18:02:22.373Z,9.95
2023-04-05T18:04:51.210Z,9.00
2023-04-05T18:07:19.859Z,9.95
2023-04-05T18:09:48.427Z,9.90
2023-04-05T18:12:21.296Z,10.52
2023-04-05T18:15:00.615Z,9.43
2023-04-05T18:17:37.531Z,10.55
2023-04-05T18:20:12.956Z,10.02
2023-04-05T18:22:48.336Z,9.60
2023-04-05T18:25:23.783Z,9.90
2023-04-05T18:27:56.362Z,10.10
2023-04-05T18:30:33.197Z,9.07
2023-04-05T18:33:05.251Z,12.15
2023-04-05T18:35:39.328Z,11.00
2023-04-05T18:38:11.288Z,10.50
2023-04-05T18:40:46.109Z,12.95
2023-04-05T18:43:19.752Z,11.60
2023-04-05T18:46:00.826Z,13.35
2023-04-05T18:48:40.801Z,11.95
2023-04-05T18:51:21.990Z,11.40
2023-04-05T18:53:59.912Z,12.57
2023-04-05T18:56:39.858Z,10.02
2023-04-05T18:59:18.443Z,10.07
2023-04-05T19:01:55.993Z,12.63
2023-04-05T19:04:32.837Z,10.63
2023-04-05T19:07:08.200Z,13.85
2023-04-05T19:09:45.039Z,10.15
2023-04-05T19:12:18.329Z,10.70
2023-04-05T19:14:53.798Z,9.50
2023-04-05T19:17:30.042Z,11.75
2023-04-05T19:20:05.970Z,11.30
2023-04-05T19:22:40.181Z,9.27
2023-04-05T19:25:15.688Z,10.55
2023-04-05T19:27:50.176Z,9.73
2023-04-05T19:30:24.773Z,9.82
2023-04-05T19:33:01.983Z,11.07
2023-04-05T19:35:39.074Z,11.60
2023-04-05T19:38:13.996Z,11.23
2023-04-05T19:40:48.609Z,14.30
2023-04-05T19:43:24.574Z,11.18
2023-04-05T19:46:12.231Z,9.00
2023-04-05T19:48:50.484Z,11.82
2023-04-05T19:51:32.838Z,9.45
2023-04-05T19:54:13.393Z,11.52
2023-04-05T19:56:46.263Z,10.43
2023-04-05T19:59:34.063Z,10.98
2023-04-05T20:02:25.174Z,9.98
2023-04-05T20:05:02.707Z,10.75
2023-04-05T20:07:39.614Z,11.60
2023-04-05T20:10:22.751Z,12.10
2023-04-05T20:13:01.233Z,10.45
2023-04-05T20:15:41.242Z,10.43
2023-04-05T20:18:23.104Z,12.95
2023-04-05T20:21:00.555Z,12.68
2023-04-05T20:23:36.404Z,14.05
2023-04-05T20:26:11.549Z,13.18
2023-04-05T20:28:46.476Z,13.10
2023-04-05T20:31:26.144Z,13.93
2023-04-05T20:34:01.561Z,20.23
2023-04-05T20:36:35.615Z,24.80
2023-04-05T20:39:06.866Z,15.05
2023-04-05T20:41:36.536Z,13.20
2023-04-05T20:44:05.755Z,11.68
2023-04-05T20:46:35.093Z,13.65
2023-04-05T20:49:04.151Z,12.05
2023-04-05T20:51:34.845Z,12.95
2023-04-05T20:54:04.093Z,13.13
2023-04-05T20:56:33.793Z,14.00
2023-04-05T20:59:03.121Z,14.25
2023-04-05T21:01:32.679Z,9.85
2023-04-05T21:04:02.052Z,16.60
2023-04-05T21:06:31.200Z,15.15
2023-04-05T21:09:02.006Z,12.75
2023-04-05T21:11:31.255Z,12.30
2023-04-05T21:14:00.775Z,16.20
2023-04-05T21:16:30.180Z,16.08
2023-04-05T21:18:59.178Z,16.30
2023-04-05T21:21:28.108Z,14.45
2023-04-05T21:23:57.284Z,14.55
2023-04-05T21:26:27.543Z,14.15
2023-04-05T21:28:56.361Z,12.95
2023-04-05T21:31:25.283Z,19.73
2023-04-05T21:33:54.415Z,13.93
2023-04-05T21:36:23.265Z,12.43
2023-04-05T21:38:52.384Z,10.52
2023-04-05T21:41:21.304Z,11.20
2023-04-05T21:43:51.700Z,14.68
2023-04-05T21:46:20.870Z,12.55
2023-04-05T21:48:49.804Z,16.13
2023-04-05T21:51:18.612Z,12.82
2023-04-05T21:53:48.147Z,13.10
2023-04-05T21:56:17.164Z,13.55
2023-04-05T21:58:45.993Z,16.98
2023-04-05T22:01:16.858Z,14.13
2023-04-05T22:03:46.329Z,13.52
2023-04-05T22:06:15.320Z,15.40
2023-04-05T22:08:44.825Z,10.73
2023-04-05T22:11:13.880Z,10.93
2023-04-05T22:13:42.684Z,12.10
2023-04-05T22:16:11.886Z,14.30
2023-04-05T22:18:42.314Z,13.70
2023-04-05T22:21:11.688Z,10.70
2023-04-05T22:23:42.787Z,13.00
2023-04-05T22:26:11.985Z,10.90
2023-04-05T22:28:40.434Z,12.65
2023-04-05T22:31:09.058Z,15.48
2023-04-05T22:33:37.739Z,14.95
2023-04-05T22:36:09.865Z,19.05
2023-04-05T22:38:38.566Z,20.15
2023-04-05T22:41:07.109Z,13.70
2023-04-05T22:43:35.608Z,12.98
2023-04-05T22:46:04.378Z,14.68
2023-04-05T22:48:33.004Z,14.75
2023-04-05T22:51:01.679Z,12.82
2023-04-05T22:53:31.548Z,15.40
2023-04-05T22:56:00.256Z,11.82
2023-04-05T22:58:29.801Z,14.57
2023-04-05T23:00:58.413Z,10.57
2023-04-05T23:03:26.803Z,14.82
2023-04-05T23:05:55.748Z,14.50
2023-04-05T23:08:24.529Z,13.65
2023-04-05T23:10:54.387Z,11.98
2023-04-05T23:13:22.769Z,13.25
2023-04-05T23:15:51.311Z,12.40
2023-04-05T23:18:22.768Z,12.48
2023-04-05T23:20:51.878Z,13.50
2023-04-05T23:23:20.386Z,10.80
2023-04-05T23:25:48.940Z,11.43
2023-04-05T23:28:18.804Z,14.73
2023-04-05T23:30:49.165Z,14.55
2023-04-05T23:33:17.831Z,13.30
2023-04-05T23:35:46.585Z,10.60
2023-04-05T23:38:15.204Z,13.15
2023-04-05T23:40:43.726Z,10.60
2023-04-05T23:43:12.773Z,12.60
2023-04-05T23:45:44.603Z,13.82
2023-04-05T23:48:14.134Z,12.02
2023-04-05T23:50:42.796Z,13.20
2023-04-05T23:53:11.827Z,15.02
2023-04-05T23:55:41.859Z,17.70
2023-04-05T23:58:10.879Z,15.60
